Bookmark and Share
Track history (hours):
 

USCGC Eagle (United States)

Training ship of US Coast Guard Academy, and only square-rigger in active service in the US armed services. Ex German ship Horst Wessel.

Ship's website: http://www.cga.edu/eagle/

Last reported at 2014-Apr-04 18:34 UTC. Time now 2014-Apr-16 19:14 UTC.
Position N 41°21' W 072°05'.
Warning: this ship's position is 12 days out of date.

NotesDate/timePositionNaut miles runAvg speedWind from/ knotsBaromVisibWave heightAir tempDewpointWater temp
2014-Apr-04 18:34N 41°21' W 072°05'2 2.1
2014-Apr-04 17:33N 41°19' W 072°05'7 6.7
2014-Apr-04 16:33N 41°14' W 071°60'8 8.4
2014-Apr-04 15:33N 41°11' W 071°49'9 9.2
2014-Apr-04 14:33N 41°03' W 071°42'9 8.7
2014-Apr-04 13:33N 40°55' W 071°42'5 4.8
2014-Apr-04 12:33N 40°50' W 071°45'2 4.3
CURRENTLY 15 NM SE OF MONTAUK PT, NY. CRS 028 DEG, SPD 5.0 KTS2014-Apr-04 12:00N 40°48' W 071°46'3 5.9
2014-Apr-04 11:33N 40°46' W 071°48'5 5.0
2014-Apr-04 10:33N 40°41' W 071°50'5 4.8
2014-Apr-04 09:33N 40°37' W 071°53'8 8.1
2014-Apr-04 08:33N 40°29' W 071°58'3 5.3
CURRENTLY 40 NM S OF MONTAUK, NY. CRS 028 DEG, SPD 10.0 KTS2014-Apr-04 08:00N 40°26' W 071°57'1213.0
2014-Apr-04 07:06N 40°16' W 072°03'610.1
2014-Apr-04 06:28N 40°10' W 072°05'8 9.1
2014-Apr-04 05:33N 40°03' W 072°13'19 9.4
2014-Apr-04 03:33N 39°47' W 072°23'10 9.6
2014-Apr-04 02:33N 39°38' W 072°29'24 9.3
CURRENTLY 98 NM SE OF NEW YORK, NY. CRS 027 DEG, SPD 9.0 KTS2014-Apr-04 00:00N 39°16' W 072°42'95 7.9
CURRENTLY 97 NM E OF CHINCOTEAGUE BAY, VA. CRS 354 DEG, SPD 8.2 KTS2014-Apr-03 12:00N 37°45' W 073°17'30 3.7
CURRENTLY 96 NM ENE OF CAPE CHARLES, VA. CRS 100 DEG, SPD 5.2 KTS2014-Apr-03 04:00N 37°23' W 073°42'33 4.1
CURRENTLY SAILING 54 NM E OF CHINCOTEAGUE INLET, VA. CRS 120 DEG, SPD 3.0 KTS2014-Apr-02 20:00N 37°33' W 074°21'28 2.4
CURRENTLY 75 NM E OF CAPE CHARLES, VA. CRS 350 DEG, SPD 7.0 KTS2014-Apr-02 08:00N 37°04' W 074°21'36 9.1
CURRENTLY 73 NM E OF CURRITUCK BEACH, NC. CRS 356 DEG, SPD 10.0 KTS2014-Apr-02 04:00N 36°28' W 074°20'32 8.0
CURRENTLY 75 NM NE OF CAPE HATTERAS, NC. CRS 345 DEG, SPD 6.7 KTS2014-Apr-02 00:00N 35°56' W 074°16'78 6.5
CURRENTLY 26 NM SE OF CAPE HATTERAS, NC. CRS 075 DEG, SPD 6.5 KTS2014-Apr-01 12:00N 34°53' W 075°11'43 5.3
CURRENTLY 38 NM SE OF CAPE LOOKOUT, NC. CRS 050 DEG, SPD 6.4 KTS2014-Apr-01 04:00N 34°23' W 075°48'21 5.2
CURRENTLY 28 NM SE OF CAPE LOOKOUT, NC. CRS 050 DEG, SPD 3.0 KTS2014-Apr-01 00:00N 34°14' W 076°11'19 4.7
CURRENTLY 17 NM S OF CAPE LOOKOUT, NC. CRS 130 DEG, SPD 5.0 KTS2014-Mar-31 20:00N 34°20' W 076°33'8 4.7
2014-Mar-31 18:14N 34°27' W 076°37'2 3.1
2014-Mar-31 17:33N 34°29' W 076°38'5 5.5
2014-Mar-31 16:33N 34°34' W 076°39'6 5.9
2014-Mar-31 15:33N 34°40' W 076°40'3 3.2
2014-Mar-31 14:32N 34°43' W 076°42'0 0.0
2014-Mar-31 13:32N 34°43' W 076°42'0 0.0
2014-Mar-31 12:32N 34°43' W 076°42'5 8.8
CURRENTLY 2.7 NM S OF SHACKELFORD BANKS, NC. CRS 193, SPD 4.8. 2014-Mar-31 12:00N 34°39' W 076°40'511.0
2014-Mar-31 11:33N 34°43' W 076°42'0 0.0
2014-Mar-31 10:33N 34°43' W 076°42'0 0.0
2014-Mar-31 09:33N 34°43' W 076°42'0 0.0
2014-Mar-31 08:33N 34°43' W 076°42'0 0.0
2014-Mar-31 07:33N 34°43' W 076°42'0 0.0
2014-Mar-31 06:33N 34°43' W 076°42'0 0.0
2014-Mar-31 05:33N 34°43' W 076°42'0 0.0
2014-Mar-31 04:33N 34°43' W 076°42'0 0.0
2014-Mar-31 03:33N 34°43' W 076°42'0 0.0
2014-Mar-31 02:33N 34°43' W 076°42'0 0.0
2014-Mar-31 01:33N 34°43' W 076°42'0 0.0
2014-Mar-31 00:33N 34°43' W 076°42'0 0.0
2014-Mar-30 23:33N 34°43' W 076°42'0 0.0
2014-Mar-30 22:33N 34°43' W 076°42'0 0.0
2014-Mar-30 21:33N 34°43' W 076°42'0 0.0
2014-Mar-30 20:33N 34°43' W 076°42'0 0.0
2014-Mar-30 19:33N 34°43' W 076°42'0 0.0
2014-Mar-30 18:33N 34°43' W 076°42'0 0.0
2014-Mar-30 17:33N 34°43' W 076°42'0 0.0
2014-Mar-30 16:33N 34°43' W 076°42'0 0.0
2014-Mar-30 15:33N 34°43' W 076°42'0 0.0
2014-Mar-30 14:33N 34°43' W 076°42'0 0.0
2014-Mar-30 13:33N 34°43' W 076°42'0 0.0
2014-Mar-30 12:33N 34°43' W 076°42'0 0.0
2014-Mar-30 11:33N 34°43' W 076°42'0 0.0
2014-Mar-30 10:33N 34°43' W 076°42'0 0.0
2014-Mar-30 09:33N 34°43' W 076°42'0 0.0
2014-Mar-30 08:33N 34°43' W 076°42'0 0.0
2014-Mar-30 07:33N 34°43' W 076°42'0 0.0
2014-Mar-30 06:33N 34°43' W 076°42'0 0.0
2014-Mar-30 05:33N 34°43' W 076°42'0 0.0
2014-Mar-30 04:33N 34°43' W 076°42'0 0.0
2014-Mar-30 03:33N 34°43' W 076°42'0 0.0
2014-Mar-30 02:33N 34°43' W 076°42'0 0.0
2014-Mar-30 01:33N 34°43' W 076°42'0 0.0
2014-Mar-30 00:33N 34°43' W 076°42'0 0.0
2014-Mar-29 23:33N 34°43' W 076°42'0 0.0
2014-Mar-29 22:33N 34°43' W 076°42'0 0.0
2014-Mar-29 21:33N 34°43' W 076°42'0 0.0
2014-Mar-29 20:33N 34°43' W 076°42'0 0.0
2014-Mar-29 19:33N 34°43' W 076°42'0 0.0
2014-Mar-29 18:33N 34°43' W 076°42'0 0.0
2014-Mar-29 17:33N 34°43' W 076°42'0 0.0
2014-Mar-29 16:33N 34°43' W 076°42'0 0.0
2014-Mar-29 15:33N 34°43' W 076°42'0 0.0
2014-Mar-29 14:33N 34°43' W 076°42'0 0.0
2014-Mar-29 13:33N 34°43' W 076°42'0 0.0
2014-Mar-29 12:33N 34°43' W 076°42'0 0.0
2014-Mar-29 11:33N 34°43' W 076°42'0 0.0
2014-Mar-29 10:33N 34°43' W 076°42'0 0.0
2014-Mar-29 09:33N 34°43' W 076°42'0 0.0
2014-Mar-29 08:33N 34°43' W 076°42'0 0.0
2014-Mar-29 07:33N 34°43' W 076°42'0 0.0
2014-Mar-29 06:33N 34°43' W 076°42'0 0.0
2014-Mar-29 05:33N 34°43' W 076°42'0 0.0
2014-Mar-29 04:33N 34°43' W 076°42'0 0.0
2014-Mar-29 03:33N 34°43' W 076°42'0 0.0
2014-Mar-29 02:33N 34°43' W 076°42'0 0.0
2014-Mar-29 01:33N 34°43' W 076°42'0 0.0
2014-Mar-29 00:33N 34°43' W 076°42'0 0.0
2014-Mar-28 23:33N 34°43' W 076°42'0 0.0
2014-Mar-28 22:33N 34°43' W 076°42'0 0.0
2014-Mar-28 21:33N 34°43' W 076°42'0 0.0
2014-Mar-28 20:33N 34°43' W 076°42'0 0.0
2014-Mar-28 19:33N 34°43' W 076°42'0 0.0
2014-Mar-28 18:33N 34°43' W 076°42'0 0.0
2014-Mar-28 17:33N 34°43' W 076°42'0 0.0
2014-Mar-28 16:33N 34°43' W 076°42'0 0.0
2014-Mar-28 15:33N 34°43' W 076°42'0 0.0
2014-Mar-28 14:33N 34°43' W 076°42'0 0.0
2014-Mar-28 13:33N 34°43' W 076°42'0 0.2
2014-Mar-28 12:33N 34°43' W 076°42'5 4.8
2014-Mar-28 11:33N 34°38' W 076°41'7 5.4
2014-Mar-28 10:19N 34°32' W 076°39'24 3.7
CURRENTLY 20 NM SE OF CAPE LOOKOUT, NC. CRS 225 DEG, SPD 5.2 KTS2014-Mar-28 04:00N 34°23' W 076°13'33 4.2
CURRENTLY 30 NM SW OF CAPE HATTERAS, NC. CRS 226 DEG, SPD 5.5 KTS2014-Mar-27 20:00N 34°45' W 075°42'13 3.2
CURRENTLY NM S OF CAPE HATTERAS, NC. CRS 225 DEG, SPD 3.0 KTS2014-Mar-27 16:00N 34°53' W 075°30'14 3.4
CURRENTLY 14.5 NM SE OF CAPE HATTERAS, NC. CRS 215 DEG, SPD 3.2 KTS2014-Mar-27 12:00N 35°03' W 075°18'14 1.8
CURRENTLY 15.0 NM E OF CAPE HATTERAS, NC. CRS 180, SPD 4.4KTS. 2014-Mar-27 04:00N 35°16' W 075°13'5714.2
CURRENTLY 28 NM SE OF CAPE LOOKOUT, NC. CRS 231 DEG, SPD 2.6 KTS2014-Mar-27 00:00N 34°33' W 075°58'11814.7
CURRENTLY 10 NM E OF KNOTIS ISNLAND, NC. CRS 159, SPD 8.3. 2014-Mar-26 16:00N 36°30' W 075°42'4611.5
CURRENTLY 6.5 NM W OF PICKETTS HARBOR, VA. ANCHORED. 2014-Mar-26 12:00N 37°12' W 076°07'0 0.0
CURRENTLY ANCHORED 18 NM E OF VIRGINIA BEACH, VA. 2014-Mar-26 04:00N 37°11' W 076°08'  

Dump ship's entire track history

sailing weather and tide predictions

USCGC Eagle — NRCB — position and weather